In Rescue
 
Open Full Screen Window  High Contrast Mode
Wind Gusting 00 knots
11
May 20, 2019 3:18 PM EDT
Weather Information
Wind Direction
  270 °
Wind Speed
  11 kt (13 mph)
Wind Gust
  00 kt (0 mph)
Altimeter
30.02 in
Visibility
10 SM
Temperature
11° C
52° F
Dewpoint
04° C
39° F
Humidity
62%
1hr Rain Fall
00.00 in.
24hr Rain Fall
00.01 in.
Sky Condition
Overcast @ 2,600 ft
MVFR

METAR KJYM 201918Z AUTO 27011KT 10SM OVC026 11/04 A3002 RMK AO2 T01050041

FAA Disclaimer: The data displayed is for advisory purposes only and is not to be used for flight planning or operations.